Independence, Michigan
Current Conditions -  °F | °C
As of 6:53 AM on Friday 31 Oct 2014 (Local Time) from KPTK Reporting Station
Light Rain Light Rain  
Wind Chill: 43°   Ceiling: 4400
Heat Index: 43°   Visibility: 10mi
Dew Point: 36°   Wind: 0mph
Humidity: 76%   Direction: NA
Pressure: 29.88"   Gusts: NA
Location:  42.7676°N, 83.4033°W
Report Text: KPTK 311053Z 00000KT 10SM -RA SCT033 BKN044 OVC055 06/02 A2988 RMK AO2 SLP123 P0000 T00610022
Loading
Personal Weather Stations






























Interactive Weather Map
Tropical Storm Tracking
New forecast layout! Learn more

10-Day Weather Forecast

Advertisements
Track Severe Weather on mobile